Terminal Aerodrome Forecast
Issued by NWS

Home | Current Version | Previous Version | Text Only | Print | Product List | Glossary On
Versions: 1 2 3 4 5 6 7 8 9 10 11 12 13 14 15 16 17 18 19 20 21 22 23 24 25 26
000
FTAK31 PAFA 262353
TAFAOM
TAF
PAOM 262353Z 2700/2724 36005KT P6SM SKC
     FM270600 09008KT P6SM SCT080
     FM271200 09018KT P6SM BKN120
     FM271400 11025KT 3SM -SN BLSN BKN035=

USA.gov is the U.S. government's official web portal to all federal, state and local government web resources and services.